Time;durP1;ratioP1;P1;durP2;ratioP2;P2;SDS_P1;SDS_P2;PMS_P1;PMS_P2;Temp;Humidity;BMP_temperature;BMP_pressure;BME280_temperature;BME280_humidity;BME280_pressure;Samples;Min_cycle;Max_cycle;Signal;HPM_P1;HPM_P2
2024/04/12 00:01:46;;;;;;;9.88;8.88;;;14.00;99.90;;;;;;5402445;26;20660;-76
2024/04/12 00:04:18;;;;;;;12.88;9.68;;;14.00;99.90;;;;;;5400922;26;20044;-77
2024/04/12 00:06:49;;;;;;;9.82;8.80;;;14.10;99.90;;;;;;5408863;26;20002;-76
2024/04/12 00:09:19;;;;;;;10.38;9.20;;;14.00;99.90;;;;;;5437086;26;20006;-76
2024/04/12 00:11:50;;;;;;;14.05;11.38;;;14.00;99.90;;;;;;5397033;26;20014;-76
2024/04/12 00:14:17;;;;;;;10.02;8.90;;;14.00;99.90;;;;;;5367836;26;22067;-76
2024/04/12 00:16:44;;;;;;;9.38;8.43;;;14.00;99.90;;;;;;5397338;26;20017;-76
2024/04/12 00:19:18;;;;;;;13.15;10.40;;;14.00;99.90;;;;;;5431781;26;20002;-76
2024/04/12 00:21:51;;;;;;;9.95;8.45;;;14.00;99.90;;;;;;5426162;26;20006;-76
2024/04/12 00:24:23;;;;;;;14.52;12.48;;;14.00;99.90;;;;;;5435093;26;19998;-76
2024/04/12 00:26:53;;;;;;;12.95;11.15;;;14.00;99.90;;;;;;5405825;26;20490;-77
2024/04/12 00:32:20;;;;;;;10.45;8.68;;;14.00;99.90;;;;;;5376350;26;19994;-76
2024/04/12 00:34:47;;;;;;;10.23;9.18;;;14.00;99.90;;;;;;5398255;26;20354;-76
2024/04/12 00:37:16;;;;;;;12.50;10.23;;;14.00;99.90;;;;;;5376973;26;20021;-76
2024/04/12 00:39:48;;;;;;;14.48;12.60;;;14.00;99.90;;;;;;5410644;26;20457;-76
2024/04/12 00:42:18;;;;;;;12.13;10.82;;;14.00;99.90;;;;;;5371541;26;20356;-76
2024/04/12 00:44:45;;;;;;;15.02;12.00;;;14.00;99.90;;;;;;5371520;26;20015;-76
2024/04/12 00:47:16;;;;;;;12.00;10.80;;;14.00;99.90;;;;;;5372088;26;19997;-75
2024/04/12 00:49:51;;;;;;;10.73;9.63;;;14.00;99.90;;;;;;5429502;26;20024;-76
2024/04/12 00:52:27;;;;;;;10.75;9.65;;;14.00;99.90;;;;;;5371670;26;19994;-76
2024/04/12 00:55:01;;;;;;;13.60;10.90;;;14.00;99.90;;;;;;5377431;26;20036;-75
2024/04/12 00:57:28;;;;;;;13.40;12.00;;;14.00;99.90;;;;;;5383631;26;20002;-76
2024/04/12 00:59:55;;;;;;;12.38;10.90;;;14.00;99.90;;;;;;5428022;26;20002;-76
2024/04/12 01:02:22;;;;;;;15.13;13.50;;;14.00;99.90;;;;;;5404031;26;19998;-76
2024/04/12 01:04:49;;;;;;;16.38;13.95;;;14.00;99.90;;;;;;5396900;26;20007;-76
2024/04/12 01:07:18;;;;;;;13.43;11.43;;;14.00;99.90;;;;;;5400339;26;20009;-76
2024/04/12 01:09:44;;;;;;;13.52;12.05;;;14.00;99.90;;;;;;5369602;26;20114;-76
2024/04/12 01:12:17;;;;;;;12.43;10.65;;;13.90;99.90;;;;;;5396394;26;20020;-76
2024/04/12 01:14:44;;;;;;;11.68;10.45;;;14.00;99.90;;;;;;5434683;26;20633;-76
2024/04/12 01:17:10;;;;;;;16.10;13.52;;;14.00;99.90;;;;;;5381249;26;20002;-77
2024/04/12 01:19:38;;;;;;;14.52;11.98;;;14.00;99.90;;;;;;5404319;26;19999;-76
2024/04/12 01:22:05;;;;;;;13.75;10.55;;;14.00;99.90;;;;;;5427569;26;20006;-77
2024/04/12 01:24:34;;;;;;;15.90;13.85;;;13.90;99.90;;;;;;5427181;26;19998;-77
2024/04/12 01:27:06;;;;;;;18.02;15.93;;;13.90;99.90;;;;;;5397308;26;20051;-77
2024/04/12 01:29:33;;;;;;;18.92;16.27;;;13.90;99.90;;;;;;5429926;26;20024;-76
2024/04/12 01:32:03;;;;;;;19.08;17.05;;;13.90;99.90;;;;;;5405364;26;20006;-76
2024/04/12 01:34:30;;;;;;;19.83;17.70;;;13.90;99.90;;;;;;5439788;26;20024;-76
2024/04/12 01:37:01;;;;;;;19.33;17.08;;;13.90;99.90;;;;;;5374025;26;20006;-76
2024/04/12 01:39:28;;;;;;;17.30;14.85;;;13.90;99.90;;;;;;5368260;26;20010;-77
2024/04/12 01:41:55;;;;;;;18.25;15.73;;;13.90;99.90;;;;;;5395832;26;20003;-76
2024/04/12 01:44:24;;;;;;;19.23;17.15;;;13.90;99.90;;;;;;5370136;26;20012;-76
2024/04/12 01:46:52;;;;;;;22.67;19.20;;;13.90;99.90;;;;;;5431281;26;20369;-76
2024/04/12 01:49:22;;;;;;;19.45;16.77;;;13.90;99.90;;;;;;5438236;26;20036;-76
2024/04/12 01:51:49;;;;;;;17.63;15.73;;;13.90;99.90;;;;;;5432582;26;20013;-75
2024/04/12 01:54:17;;;;;;;21.30;19.00;;;13.90;99.90;;;;;;5431140;26;20360;-77
2024/04/12 01:56:48;;;;;;;24.35;19.73;;;13.90;99.90;;;;;;5431533;26;20476;-76
2024/04/12 01:59:15;;;;;;;20.67;18.48;;;13.90;99.90;;;;;;5405889;26;20022;-76
2024/04/12 02:01:45;;;;;;;18.33;15.43;;;13.90;99.90;;;;;;5429110;26;20398;-76
2024/04/12 02:04:18;;;;;;;18.80;16.30;;;13.90;99.90;;;;;;5469961;26;20463;-76
2024/04/12 02:06:47;;;;;;;17.00;15.25;;;13.90;99.90;;;;;;5411072;26;20002;-76
2024/04/12 02:09:15;;;;;;;15.27;13.45;;;13.90;99.90;;;;;;5402798;26;20471;-76
2024/04/12 02:11:47;;;;;;;16.15;14.27;;;13.90;99.90;;;;;;5429773;26;20095;-76
2024/04/12 02:14:15;;;;;;;15.63;13.15;;;13.90;99.90;;;;;;5400029;26;20016;-77
2024/04/12 02:16:42;;;;;;;13.07;11.68;;;13.90;99.90;;;;;;5404764;26;20024;-76
2024/04/12 02:19:13;;;;;;;16.25;14.55;;;13.90;99.90;;;;;;5407040;26;20373;-77
2024/04/12 02:21:40;;;;;;;19.35;17.02;;;13.90;99.90;;;;;;5413170;26;20002;-77
2024/04/12 02:24:08;;;;;;;15.18;13.63;;;13.90;99.90;;;;;;5410011;26;19998;-77
2024/04/12 02:26:37;;;;;;;19.77;17.45;;;13.90;99.90;;;;;;5432748;26;20020;-77
2024/04/12 02:29:04;;;;;;;19.25;16.90;;;13.90;99.90;;;;;;5401370;26;20781;-76
2024/04/12 02:31:31;;;;;;;31.67;25.50;;;13.90;99.90;;;;;;5405207;26;20008;-77
2024/04/12 02:33:59;;;;;;;25.45;20.95;;;13.90;99.90;;;;;;5405209;26;20009;-77
2024/04/12 02:36:30;;;;;;;23.67;20.63;;;13.80;99.90;;;;;;5409988;26;20007;-77
2024/04/12 02:38:57;;;;;;;25.52;21.25;;;13.80;99.90;;;;;;5446151;26;20562;-77
2024/04/12 02:41:29;;;;;;;24.63;21.10;;;13.80;99.90;;;;;;5435916;26;20014;-77
2024/04/12 02:43:58;;;;;;;21.57;18.57;;;13.80;99.90;;;;;;5435785;26;21028;-76
2024/04/12 02:46:25;;;;;;;18.98;16.83;;;13.80;99.90;;;;;;5438560;26;20139;-76
2024/04/12 02:48:51;;;;;;;19.40;16.73;;;13.70;99.90;;;;;;5427823;26;20008;-77
2024/04/12 02:51:20;;;;;;;20.20;18.00;;;13.70;99.90;;;;;;5433141;26;20020;-77
2024/04/12 02:53:50;;;;;;;17.92;15.95;;;13.70;99.90;;;;;;5438228;26;20016;-76
2024/04/12 02:56:18;;;;;;;17.38;15.43;;;13.70;99.90;;;;;;5411300;26;20020;-76
2024/04/12 02:58:46;;;;;;;16.05;14.35;;;13.70;99.90;;;;;;5407688;26;20038;-78
2024/04/12 03:01:16;;;;;;;14.93;13.05;;;13.70;99.90;;;;;;5433219;26;20006;-77
2024/04/12 03:03:46;;;;;;;16.13;14.43;;;13.70;99.90;;;;;;5435009;26;20007;-76
2024/04/12 03:06:16;;;;;;;17.20;14.20;;;13.70;99.90;;;;;;5433458;26;20002;-76
2024/04/12 03:08:47;;;;;;;17.83;15.70;;;13.80;99.90;;;;;;5456220;26;20010;-77
2024/04/12 03:11:22;;;;;;;17.30;15.07;;;13.70;99.90;;;;;;5388773;26;20024;-77
2024/04/12 03:13:54;;;;;;;16.92;15.13;;;13.70;99.90;;;;;;5413806;26;20010;-77
2024/04/12 03:16:21;;;;;;;18.42;14.95;;;13.70;99.90;;;;;;5398554;26;20457;-76
2024/04/12 03:18:53;;;;;;;18.00;15.55;;;13.70;99.90;;;;;;5434174;26;20012;-77
2024/04/12 03:21:26;;;;;;;16.77;14.98;;;13.70;99.90;;;;;;5428857;26;21382;-77
2024/04/12 03:23:54;;;;;;;19.25;16.33;;;13.70;99.90;;;;;;5378443;26;20340;-77
2024/04/12 03:26:24;;;;;;;16.35;14.10;;;13.70;99.90;;;;;;5431465;26;20418;-77
2024/04/12 03:28:54;;;;;;;15.48;13.80;;;13.70;99.90;;;;;;5385025;26;20368;-77
2024/04/12 03:31:25;;;;;;;14.43;12.85;;;13.70;99.90;;;;;;5382256;26;20010;-77
2024/04/12 03:33:55;;;;;;;14.57;12.82;;;13.70;99.90;;;;;;5400667;26;20694;-77
2024/04/12 03:36:26;;;;;;;19.98;17.52;;;13.70;99.90;;;;;;5458050;26;20011;-76
2024/04/12 03:39:24;;;;;;;15.95;14.20;;;13.70;99.90;;;;;;5455461;26;20006;-76
2024/04/12 03:41:43;;;;;;;14.73;13.23;;;13.70;99.90;;;;;;5430825;26;21628;-76
2024/04/12 03:44:11;;;;;;;18.55;16.52;;;13.70;99.90;;;;;;5420453;26;20475;-76
2024/04/12 03:46:40;;;;;;;16.42;14.65;;;13.70;99.90;;;;;;5446806;26;19994;-76
2024/04/12 03:49:09;;;;;;;15.20;13.25;;;13.70;99.90;;;;;;5439058;26;20010;-75
2024/04/12 03:51:44;;;;;;;14.20;12.50;;;13.70;99.90;;;;;;5370372;26;20716;-76
2024/04/12 03:54:12;;;;;;;12.10;10.90;;;13.70;99.90;;;;;;5433102;26;19998;-76
2024/04/12 03:56:39;;;;;;;13.50;11.38;;;13.70;99.90;;;;;;5490326;25;20028;-76
2024/04/12 03:59:05;;;;;;;14.52;13.05;;;13.70;99.90;;;;;;5396128;26;20404;-76
2024/04/12 04:01:32;;;;;;;12.50;11.18;;;13.60;99.90;;;;;;5411698;26;20012;-76
2024/04/12 04:04:00;;;;;;;13.18;11.40;;;13.60;99.90;;;;;;5441723;26;20008;-76
2024/04/12 04:06:35;;;;;;;14.10;12.60;;;13.70;99.90;;;;;;5411561;26;20519;-76
2024/04/12 04:09:06;;;;;;;11.05;9.95;;;13.60;99.90;;;;;;5430781;26;20012;-76
2024/04/12 04:11:32;;;;;;;11.60;10.43;;;13.70;99.90;;;;;;5400325;26;20012;-76
2024/04/12 04:13:59;;;;;;;10.02;9.02;;;13.70;99.90;;;;;;5369717;26;19998;-76
2024/04/12 04:16:36;;;;;;;10.68;9.55;;;13.60;99.90;;;;;;5407715;26;20357;-76
2024/04/12 04:19:12;;;;;;;8.57;7.80;;;13.60;99.90;;;;;;5382878;26;20012;-76
2024/04/12 04:21:41;;;;;;;9.77;8.77;;;13.60;99.90;;;;;;5439283;26;20018;-76
2024/04/12 04:24:11;;;;;;;7.93;7.20;;;13.60;99.90;;;;;;5432622;26;20572;-76
2024/04/12 04:26:41;;;;;;;8.20;7.40;;;13.70;99.90;;;;;;5431392;26;20001;-76
2024/04/12 04:29:11;;;;;;;9.40;8.48;;;13.60;99.90;;;;;;5399255;26;19994;-76
2024/04/12 04:31:51;;;;;;;10.13;9.13;;;13.60;99.90;;;;;;5433408;26;20352;-76
2024/04/12 04:34:19;;;;;;;8.95;8.05;;;13.70;99.90;;;;;;5440158;26;20570;-76
2024/04/12 04:36:55;;;;;;;9.35;8.45;;;13.70;99.90;;;;;;5443193;26;20445;-76
2024/04/12 04:39:23;;;;;;;11.68;10.32;;;13.70;99.90;;;;;;5434450;26;20042;-76
2024/04/12 04:41:51;;;;;;;12.23;11.00;;;13.70;99.90;;;;;;5373665;26;20013;-76
2024/04/12 04:44:17;;;;;;;12.60;10.60;;;13.70;99.90;;;;;;5403217;26;20016;-76
2024/04/12 04:46:49;;;;;;;12.63;10.95;;;13.70;99.90;;;;;;5405948;26;20084;-76
2024/04/12 04:49:18;;;;;;;10.73;9.63;;;13.60;99.90;;;;;;5381409;26;19998;-76
2024/04/12 04:51:47;;;;;;;13.77;12.35;;;13.70;99.90;;;;;;5415269;26;20001;-76
2024/04/12 04:54:15;;;;;;;15.35;12.68;;;13.70;99.90;;;;;;5406375;26;20020;-76
2024/04/12 04:56:46;;;;;;;12.93;11.55;;;13.70;99.90;;;;;;5432938;26;21279;-77
2024/04/12 04:59:17;;;;;;;16.35;13.85;;;13.70;99.90;;;;;;5431663;26;20465;-76
2024/04/12 05:01:48;;;;;;;13.30;11.88;;;13.70;99.90;;;;;;5403361;26;20006;-76
2024/04/12 05:04:22;;;;;;;14.05;12.15;;;13.70;99.90;;;;;;5402728;26;20433;-76
2024/04/12 05:06:51;;;;;;;11.05;9.48;;;13.70;99.90;;;;;;5467282;25;20005;-76
2024/04/12 05:09:19;;;;;;;9.48;8.52;;;13.70;99.90;;;;;;5442538;26;20121;-76
2024/04/12 05:11:46;;;;;;;9.02;8.18;;;13.70;99.90;;;;;;5401575;26;20010;-76
2024/04/12 05:14:41;;;;;;;9.20;8.30;;;13.80;99.90;;;;;;5430273;26;20087;-76
2024/04/12 05:17:04;;;;;;;9.63;8.68;;;13.80;99.90;;;;;;5485797;25;20002;-76
2024/04/12 05:19:41;;;;;;;9.90;8.88;;;13.80;99.90;;;;;;5403960;26;20013;-76
2024/04/12 05:22:09;;;;;;;10.50;9.48;;;13.80;99.90;;;;;;5408768;26;20405;-78
2024/04/12 05:24:35;;;;;;;12.75;10.95;;;13.80;99.90;;;;;;5443089;26;20016;-77
2024/04/12 05:27:06;;;;;;;11.68;9.90;;;13.80;99.90;;;;;;5406814;26;20339;-76
2024/04/12 05:29:34;;;;;;;11.57;10.35;;;13.90;99.90;;;;;;5433401;26;20342;-77
2024/04/12 05:32:00;;;;;;;13.95;11.90;;;13.80;99.90;;;;;;5433063;26;20006;-79
2024/04/12 05:34:27;;;;;;;11.18;10.07;;;13.90;99.90;;;;;;5401107;26;20336;-82
2024/04/12 05:37:03;;;;;;;12.48;11.18;;;13.90;99.90;;;;;;5430394;26;20002;-78
2024/04/12 05:39:35;;;;;;;14.65;11.38;;;13.90;99.90;;;;;;5408224;26;20010;-79
2024/04/12 05:42:05;;;;;;;10.77;9.18;;;14.00;99.90;;;;;;5441421;26;20353;-78
2024/04/12 05:44:35;;;;;;;11.95;10.30;;;14.00;99.90;;;;;;5433623;26;20030;-75
2024/04/12 05:47:07;;;;;;;11.82;10.60;;;14.10;99.90;;;;;;5405157;26;20560;-75
2024/04/12 05:49:33;;;;;;;14.43;11.73;;;14.10;99.90;;;;;;5394866;26;20439;-74
2024/04/12 05:52:05;;;;;;;11.20;10.13;;;14.20;99.90;;;;;;5433311;26;20634;-80
2024/04/12 05:54:44;;;;;;;11.20;9.57;;;14.20;99.90;;;;;;5459430;25;20006;-77
2024/04/12 05:57:11;;;;;;;11.48;9.70;;;14.30;99.90;;;;;;5410220;26;20410;-76
2024/04/12 05:59:42;;;;;;;15.95;14.02;;;14.40;99.90;;;;;;5435807;26;20040;-76
2024/04/12 06:02:10;;;;;;;15.52;12.85;;;14.40;99.90;;;;;;5431544;26;20211;-77
2024/04/12 06:04:36;;;;;;;15.13;11.95;;;14.60;99.90;;;;;;5400842;26;20006;-77
2024/04/12 06:07:11;;;;;;;13.30;11.52;;;14.60;99.90;;;;;;5431072;26;20006;-75
2024/04/12 06:09:38;;;;;;;20.08;15.82;;;14.60;99.90;;;;;;5431857;26;20010;-76
2024/04/12 06:12:06;;;;;;;15.98;11.95;;;14.60;99.90;;;;;;5431929;26;20020;-76
2024/04/12 06:14:38;;;;;;;15.27;13.45;;;14.60;99.90;;;;;;5440629;26;19999;-76
2024/04/12 06:17:08;;;;;;;15.95;11.45;;;14.70;99.90;;;;;;5406208;26;20010;-78
2024/04/12 06:19:39;;;;;;;10.23;8.63;;;14.70;99.90;;;;;;5429405;26;20467;-76
2024/04/12 06:22:13;;;;;;;9.30;8.02;;;14.80;99.90;;;;;;5424660;26;20006;-76
2024/04/12 06:24:48;;;;;;;13.88;11.23;;;14.80;99.90;;;;;;5400834;26;20012;-76
2024/04/12 06:27:16;;;;;;;11.57;9.82;;;14.80;99.90;;;;;;5401455;26;21026;-77
2024/04/12 06:29:46;;;;;;;9.82;8.18;;;14.80;99.90;;;;;;5409025;26;19998;-77
2024/04/12 06:32:16;;;;;;;11.00;9.13;;;14.90;99.90;;;;;;5439268;26;20073;-77
2024/04/12 06:34:42;;;;;;;12.23;9.80;;;14.90;99.90;;;;;;5435950;26;20002;-77
2024/04/12 06:37:09;;;;;;;11.43;10.23;;;14.90;99.90;;;;;;5429633;26;20013;-77
2024/04/12 06:39:35;;;;;;;12.70;10.85;;;14.90;99.90;;;;;;5431703;26;20012;-77
2024/04/12 06:42:05;;;;;;;14.82;10.50;;;15.00;99.90;;;;;;5432317;26;20024;-76
2024/04/12 06:44:31;;;;;;;14.20;11.00;;;15.00;99.90;;;;;;5404362;26;20028;-77
2024/04/12 06:47:00;;;;;;;13.50;11.45;;;15.00;99.90;;;;;;5389476;26;20002;-77
2024/04/12 06:49:27;;;;;;;12.95;9.90;;;15.00;99.90;;;;;;5381987;26;20006;-78
2024/04/12 06:52:10;;;;;;;15.35;12.77;;;15.10;99.90;;;;;;5437247;26;20536;-76
2024/04/12 06:54:41;;;;;;;13.75;11.38;;;15.10;99.90;;;;;;5429218;26;20334;-77
2024/04/12 06:57:09;;;;;;;15.18;11.95;;;15.10;99.90;;;;;;5430419;26;20013;-76
2024/04/12 06:59:36;;;;;;;15.10;12.90;;;15.30;99.90;;;;;;5406306;26;22110;-76
2024/04/12 07:02:08;;;;;;;17.02;13.38;;;15.30;99.90;;;;;;5436439;26;20480;-76
2024/04/12 07:04:38;;;;;;;15.80;12.43;;;15.40;99.90;;;;;;5412790;26;19998;-84
2024/04/12 07:07:04;;;;;;;14.80;13.20;;;15.40;99.90;;;;;;5436613;26;20068;-76
2024/04/12 07:09:32;;;;;;;17.90;14.10;;;15.50;99.90;;;;;;5376541;26;20302;-78
2024/04/12 07:12:05;;;;;;;17.13;12.55;;;15.50;99.90;;;;;;5401727;26;20022;-77
2024/04/12 07:14:37;;;;;;;14.05;12.15;;;15.50;99.90;;;;;;5436038;26;20006;-78
2024/04/12 07:17:20;;;;;;;14.10;10.87;;;15.50;99.90;;;;;;5402812;26;19998;-77
2024/04/12 07:19:49;;;;;;;;;;;15.60;99.90;;;;;;5440406;26;20016;-78
2024/04/12 07:22:20;;;;;;;14.30;11.32;;;15.60;99.90;;;;;;5495361;25;19930;-78
2024/04/12 07:24:50;;;;;;;16.80;11.93;;;15.60;99.90;;;;;;5407393;26;20009;-77
2024/04/12 07:27:22;;;;;;;16.17;12.98;;;15.60;99.90;;;;;;5432295;26;20951;-78
2024/04/12 07:29:49;;;;;;;18.38;12.18;;;15.60;99.90;;;;;;5406521;26;20418;-76
2024/04/12 07:32:17;;;;;;;14.35;9.70;;;15.50;99.90;;;;;;5430923;26;20006;-78
2024/04/12 07:34:50;;;;;;;11.75;9.68;;;15.60;99.90;;;;;;5438533;26;20010;-80
2024/04/12 07:37:26;;;;;;;15.43;10.70;;;15.60;99.90;;;;;;5414175;26;20326;-77
2024/04/12 07:40:17;;;;;;;11.98;9.48;;;15.70;99.90;;;;;;5432634;26;19994;-77
2024/04/12 07:42:48;;;;;;;13.32;9.88;;;15.70;99.90;;;;;;5432279;26;20020;-79
2024/04/12 07:45:23;;;;;;;18.40;14.30;;;15.80;99.90;;;;;;5400320;26;20352;-79
2024/04/12 07:47:54;;;;;;;18.83;14.20;;;15.90;99.90;;;;;;5402836;26;20016;-80
2024/04/12 07:50:31;;;;;;;16.52;11.70;;;15.90;99.90;;;;;;5437056;26;19998;-77
2024/04/12 07:53:15;;;;;;;11.75;10.38;;;15.90;99.90;;;;;;5471054;25;20399;-79
2024/04/12 07:55:42;;;;;;;13.27;9.88;;;16.00;99.90;;;;;;5412626;26;20838;-80
2024/04/12 07:58:09;;;;;;;12.30;10.32;;;16.20;99.90;;;;;;5436416;26;22914;-79
2024/04/12 08:00:45;;;;;;;12.35;9.40;;;16.20;99.90;;;;;;5434123;26;20456;-78
2024/04/12 08:03:16;;;;;;;11.52;7.60;;;16.30;99.90;;;;;;5434137;26;20020;-79
2024/04/12 08:08:44;;;;;;;17.95;13.05;;;16.40;99.90;;;;;;5440469;26;20006;-78
2024/04/12 08:11:35;;;;;;;13.52;10.77;;;16.40;99.90;;;;;;5411313;26;20006;-80
2024/04/12 08:14:07;;;;;;;13.15;9.93;;;16.50;99.90;;;;;;5405803;26;20472;-79
2024/04/12 08:16:46;;;;;;;11.75;9.18;;;16.60;99.90;;;;;;5375517;26;20343;-77
2024/04/12 08:19:21;;;;;;;13.82;10.48;;;16.60;99.90;;;;;;5434080;26;20593;-79
2024/04/12 08:21:49;;;;;;;16.80;11.95;;;16.80;99.90;;;;;;5432598;26;20010;-77
2024/04/12 08:24:22;;;;;;;18.65;11.02;;;16.80;99.90;;;;;;5434682;26;20598;-77
2024/04/12 08:26:51;;;;;;;15.63;11.43;;;16.90;99.90;;;;;;5409166;26;20009;-78
2024/04/12 08:29:28;;;;;;;15.25;9.07;;;17.00;99.90;;;;;;5438730;26;20471;-79
2024/04/12 08:34:37;;;;;;;12.75;8.45;;;17.00;99.90;;;;;;5400979;26;20008;-78
2024/04/12 08:37:16;;;;;;;13.13;9.18;;;17.00;99.90;;;;;;5404702;26;20032;-80
2024/04/12 08:39:46;;;;;;;14.40;9.80;;;17.00;99.90;;;;;;5401731;26;20024;-79
2024/04/12 08:42:16;;;;;;;10.70;7.82;;;17.10;99.90;;;;;;5407894;26;20024;-80
2024/04/12 08:44:44;;;;;;;12.27;8.25;;;17.10;99.90;;;;;;5444582;26;20013;-79
2024/04/12 08:50:07;;;;;;;13.48;9.02;;;17.20;99.90;;;;;;5402352;26;20010;-80
2024/04/12 08:52:48;;;;;;;11.52;8.60;;;17.40;99.90;;;;;;5401561;26;20028;-82
2024/04/12 08:55:23;;;;;;;13.32;9.40;;;17.40;99.90;;;;;;5401661;26;20561;-80
2024/04/12 08:57:57;;;;;;;13.02;9.75;;;17.40;99.90;;;;;;5434778;26;19994;-80
2024/04/12 09:00:33;;;;;;;12.85;9.02;;;17.60;99.90;;;;;;5410844;26;20002;-79
2024/04/12 09:03:03;;;;;;;15.15;9.77;;;17.70;99.90;;;;;;5401775;26;20452;-84
2024/04/12 09:05:35;;;;;;;13.15;9.50;;;17.80;99.90;;;;;;5458562;25;20017;-81
2024/04/12 09:08:03;;;;;;;10.23;7.95;;;17.90;99.90;;;;;;5432939;26;20014;-83
2024/04/12 09:10:34;;;;;;;12.32;7.93;;;17.90;99.90;;;;;;5400395;26;20006;-83
2024/04/12 09:13:08;;;;;;;12.10;8.18;;;17.90;99.90;;;;;;5401500;26;20017;-82
2024/04/12 09:15:42;;;;;;;11.88;7.13;;;17.90;99.90;;;;;;5438981;26;20006;-82
2024/04/12 09:18:15;;;;;;;12.77;7.43;;;18.00;99.90;;;;;;5413863;26;19998;-81
2024/04/12 09:20:44;;;;;;;12.57;7.32;;;18.00;99.90;;;;;;5437728;26;20021;-81
2024/04/12 09:23:16;;;;;;;10.90;7.18;;;18.10;99.90;;;;;;5399577;26;20006;-80
2024/04/12 09:25:54;;;;;;;10.63;8.35;;;18.10;99.90;;;;;;5401890;26;20060;-81
2024/04/12 09:28:22;;;;;;;10.60;7.47;;;18.30;99.90;;;;;;5464623;25;20007;-80
2024/04/12 09:33:34;;;;;;;10.32;7.00;;;18.60;99.90;;;;;;5441728;26;21405;-80
2024/04/12 09:36:06;;;;;;;10.10;6.93;;;18.80;99.90;;;;;;5407128;26;20020;-81
2024/04/12 09:38:33;;;;;;;11.23;7.28;;;19.00;99.90;;;;;;5372290;26;20020;-82
2024/04/12 09:41:12;;;;;;;9.70;6.63;;;19.00;99.90;;;;;;5392436;26;20028;-79
2024/04/12 09:43:47;;;;;;;11.05;7.50;;;19.10;99.90;;;;;;5397341;26;20039;-81
2024/04/12 09:46:23;;;;;;;7.40;5.22;;;19.20;99.90;;;;;;5434860;26;20006;-79
2024/04/12 10:39:14;;;;;;;9.52;5.90;;;20.30;99.90;;;;;;5444362;26;20002;-79
2024/04/12 10:41:45;;;;;;;11.55;5.20;;;20.50;99.90;;;;;;5432322;26;20007;-77
2024/04/12 10:44:12;;;;;;;8.40;4.55;;;20.60;99.90;;;;;;5403129;26;20706;-78
2024/04/12 10:46:38;;;;;;;6.15;3.75;;;20.70;99.90;;;;;;5407282;26;20002;-77
2024/04/12 10:49:05;;;;;;;9.02;5.10;;;20.90;99.90;;;;;;5397898;26;19998;-78
2024/04/12 10:51:39;;;;;;;9.95;4.80;;;21.10;99.90;;;;;;5437432;26;20367;-79
2024/04/12 10:54:10;;;;;;;12.85;6.47;;;21.30;99.90;;;;;;5415286;26;19999;-79
2024/04/12 10:56:47;;;;;;;8.45;4.38;;;21.50;99.90;;;;;;5401880;26;20013;-78
2024/04/12 10:59:26;;;;;;;9.27;5.60;;;21.50;99.90;;;;;;5432625;26;20002;-79
2024/04/12 11:01:56;;;;;;;10.43;4.25;;;21.60;99.90;;;;;;5430452;26;22851;-78
2024/04/12 11:04:22;;;;;;;9.20;4.82;;;21.80;99.90;;;;;;5435320;26;20010;-78
2024/04/12 11:06:50;;;;;;;7.38;3.83;;;22.00;99.90;;;;;;5410839;26;20451;-80
2024/04/12 11:09:17;;;;;;;8.20;4.20;;;22.00;99.90;;;;;;5417583;26;20006;-78
2024/04/12 11:11:44;;;;;;;6.88;3.63;;;22.00;99.90;;;;;;5409598;26;20006;-79
2024/04/12 11:14:27;;;;;;;7.40;2.65;;;22.30;99.90;;;;;;5407798;26;20005;-79
2024/04/12 11:33:39;;;;;;;7.20;3.17;;;24.30;99.90;;;;;;5394658;26;20002;-78
2024/04/12 11:36:10;;;;;;;6.93;2.63;;;24.80;99.90;;;;;;5427755;26;20006;-79
2024/04/12 11:38:40;;;;;;;8.48;2.70;;;25.10;99.90;;;;;;5402731;26;20005;-79
2024/04/12 11:41:15;;;;;;;6.78;3.05;;;25.30;99.90;;;;;;5438535;26;20014;-77
2024/04/12 11:43:45;;;;;;;4.93;2.75;;;25.20;99.90;;;;;;5468335;25;20010;-78
2024/04/12 11:46:16;;;;;;;5.85;3.10;;;25.30;99.90;;;;;;5404513;26;20007;-77
2024/04/12 11:48:43;;;;;;;4.85;2.38;;;25.60;99.90;;;;;;5428329;26;20002;-77
2024/04/12 11:51:15;;;;;;;5.90;2.83;;;25.80;99.90;;;;;;5399088;26;20472;-76
2024/04/12 11:53:44;;;;;;;6.18;2.85;;;25.70;99.90;;;;;;5432088;26;20012;-75
2024/04/12 11:56:10;;;;;;;5.30;2.22;;;25.70;99.90;;;;;;5408741;26;20017;-77
2024/04/12 11:58:37;;;;;;;4.00;1.65;;;25.60;99.90;;;;;;5416657;26;20020;-76
2024/04/12 12:01:04;;;;;;;7.68;3.08;;;25.70;99.90;;;;;;5433224;26;21281;-76
2024/04/12 12:03:31;;;;;;;6.20;3.95;;;25.90;99.90;;;;;;5430669;26;20002;-79
2024/04/12 12:06:06;;;;;;;5.05;2.75;;;26.00;99.90;;;;;;5372158;26;20010;-77
2024/04/12 12:08:41;;;;;;;7.80;3.67;;;26.20;99.90;;;;;;5430955;26;20016;-77
2024/04/12 12:11:09;;;;;;;5.13;2.88;;;26.40;99.90;;;;;;5404255;26;20960;-80
2024/04/12 12:13:35;;;;;;;5.25;2.58;;;26.50;99.70;;;;;;5404052;26;20773;-76
2024/04/12 12:16:05;;;;;;;5.70;2.60;;;26.50;99.00;;;;;;5446724;26;20006;-77
2024/04/12 12:18:35;;;;;;;3.47;1.40;;;26.20;98.80;;;;;;5376195;26;19994;-77
2024/04/12 12:21:01;;;;;;;5.70;2.30;;;25.80;98.90;;;;;;5434887;26;20006;-77
2024/04/12 12:23:29;;;;;;;5.57;3.40;;;25.40;99.00;;;;;;5406065;26;20004;-78
2024/04/12 12:25:58;;;;;;;4.53;2.03;;;25.00;98.80;;;;;;5432989;26;20016;-78
2024/04/12 12:28:26;;;;;;;4.80;2.20;;;25.00;99.20;;;;;;5409374;26;20016;-78
2024/04/12 12:30:57;;;;;;;3.88;2.35;;;25.10;99.60;;;;;;5413761;26;20716;-78
2024/04/12 12:33:24;;;;;;;5.40;1.77;;;25.20;99.00;;;;;;5405107;26;20006;-77
2024/04/12 12:35:54;;;;;;;3.92;1.38;;;25.30;99.30;;;;;;5434150;26;20009;-78
2024/04/12 12:38:21;;;;;;;4.47;1.40;;;25.50;99.20;;;;;;5489834;25;20006;-77
2024/04/12 12:40:47;;;;;;;6.60;2.60;;;25.40;98.60;;;;;;5431118;26;20009;-78
2024/04/12 12:43:15;;;;;;;5.32;2.17;;;25.10;98.70;;;;;;5435267;26;20551;-78
2024/04/12 12:45:41;;;;;;;4.18;1.38;;;25.30;98.90;;;;;;5441814;26;20016;-78
2024/04/12 12:48:21;;;;;;;4.85;3.08;;;25.30;98.60;;;;;;5442794;26;20356;-77
2024/04/12 12:50:47;;;;;;;6.60;2.72;;;25.00;98.80;;;;;;5405773;26;20012;-77
2024/04/12 12:53:15;;;;;;;4.43;1.52;;;24.50;99.00;;;;;;5435734;26;20005;-76
2024/04/12 12:55:41;;;;;;;5.10;1.80;;;24.20;99.60;;;;;;5428994;26;20470;-79
2024/04/12 12:58:11;;;;;;;2.58;1.02;;;24.40;99.80;;;;;;5435453;26;20012;-77
2024/04/12 13:00:45;;;;;;;4.00;1.35;;;24.90;99.50;;;;;;5440085;26;19998;-78
2024/04/12 13:03:12;;;;;;;3.15;1.45;;;25.50;99.20;;;;;;5441250;26;20362;-77
2024/04/12 13:05:39;;;;;;;3.85;1.15;;;25.80;98.90;;;;;;5440588;26;20494;-76
2024/04/12 13:08:06;;;;;;;3.05;0.80;;;26.30;97.80;;;;;;5431081;26;20585;-79
2024/04/12 13:10:33;;;;;;;3.15;0.90;;;26.70;97.00;;;;;;5433719;26;20004;-79
2024/04/12 13:13:04;;;;;;;1.98;0.63;;;26.60;96.70;;;;;;5432409;26;19998;-76
2024/04/12 13:15:31;;;;;;;3.67;0.70;;;26.60;96.60;;;;;;5431370;26;20006;-80
2024/04/12 13:17:58;;;;;;;3.22;1.00;;;26.60;96.80;;;;;;5408104;26;19999;-79
2024/04/12 13:20:24;;;;;;;2.20;0.88;;;27.00;96.00;;;;;;5445213;26;19998;-79
2024/04/12 13:22:50;;;;;;;4.00;1.35;;;27.40;95.80;;;;;;5435568;26;20004;-79
2024/04/12 13:25:17;;;;;;;5.25;1.17;;;27.90;95.80;;;;;;5405548;26;20009;-77
2024/04/12 13:27:47;;;;;;;2.78;1.20;;;28.40;94.60;;;;;;5431971;26;20557;-77
2024/04/12 13:30:16;;;;;;;3.40;1.00;;;28.80;94.00;;;;;;5400889;26;20002;-78
2024/04/12 13:32:43;;;;;;;3.10;0.70;;;29.00;93.10;;;;;;5401888;26;20449;-78
2024/04/12 13:35:13;;;;;;;3.58;0.82;;;28.90;92.00;;;;;;5430548;26;20480;-78
2024/04/12 13:37:42;;;;;;;4.45;0.82;;;28.60;91.10;;;;;;5384778;26;19998;-77
2024/04/12 13:40:17;;;;;;;3.75;0.70;;;28.20;90.90;;;;;;5411320;26;20012;-78
2024/04/12 13:42:49;;;;;;;2.00;1.05;;;27.60;91.00;;;;;;5430427;26;20559;-76
2024/04/12 13:50:56;;;;;;;1.67;0.50;;;26.20;92.60;;;;;;5449333;25;20044;-77
2024/04/12 13:53:35;;;;;;;2.47;0.43;;;25.70;92.70;;;;;;5408365;26;20024;-77
2024/04/12 13:58:52;;;;;;;3.05;0.60;;;25.30;93.50;;;;;;5442495;26;20009;-77
2024/04/12 14:01:22;;;;;;;1.85;0.52;;;25.20;93.70;;;;;;5409581;26;20002;-77
2024/04/12 14:03:54;;;;;;;3.75;0.60;;;25.00;93.90;;;;;;5370732;26;20012;-77
2024/04/12 14:06:24;;;;;;;1.52;0.50;;;24.80;94.30;;;;;;5405991;26;20032;-77
2024/04/12 14:08:55;;;;;;;2.40;0.70;;;24.70;94.60;;;;;;5401510;26;20006;-77
2024/04/12 14:11:22;;;;;;;2.22;0.60;;;24.80;94.70;;;;;;5407154;26;20006;-77
2024/04/12 14:13:49;;;;;;;5.43;1.30;;;25.20;94.90;;;;;;5416652;26;20570;-78
2024/04/12 14:16:16;;;;;;;3.30;0.80;;;25.90;94.40;;;;;;5447647;26;19998;-78
2024/04/12 14:18:50;;;;;;;3.95;1.02;;;26.10;94.00;;;;;;5434484;26;20006;-77
2024/04/12 14:21:17;;;;;;;1.77;0.80;;;26.00;94.00;;;;;;5428640;26;20468;-78